Time;durP1;ratioP1;P1;durP2;ratioP2;P2;SDS_P1;SDS_P2;PMS_P1;PMS_P2;Temp;Humidity;BMP_temperature;BMP_pressure;BME280_temperature;BME280_humidity;BME280_pressure;Samples;Min_cycle;Max_cycle;Signal;HPM_P1;HPM_P2
2023/03/31 00:01:26;;;;;;;22.50;7.33;;;9.90;99.90;;;;;;4965617;28;20287;-79
2023/03/31 00:04:00;;;;;;;17.40;6.87;;;9.90;99.90;;;;;;4964206;28;20255;-80
2023/03/31 00:06:28;;;;;;;20.37;5.77;;;9.90;99.90;;;;;;4965459;28;20268;-79
2023/03/31 00:09:00;;;;;;;15.10;5.10;;;9.90;99.90;;;;;;4967000;28;20237;-79
2023/03/31 00:11:29;;;;;;;13.83;4.60;;;9.90;99.90;;;;;;4962006;28;20617;-79
2023/03/31 00:13:56;;;;;;;15.90;4.00;;;9.90;99.90;;;;;;4979459;28;20764;-79
2023/03/31 00:16:23;;;;;;;14.47;4.30;;;9.80;99.90;;;;;;4965125;28;20239;-80
2023/03/31 00:18:51;;;;;;;16.20;3.97;;;9.80;99.90;;;;;;4963915;28;20245;-80
2023/03/31 00:21:28;;;;;;;14.67;3.90;;;9.80;99.90;;;;;;4963903;28;20240;-79
2023/03/31 00:23:56;;;;;;;18.73;3.87;;;9.80;99.90;;;;;;4959113;28;20333;-80
2023/03/31 00:26:24;;;;;;;12.70;3.57;;;9.80;99.90;;;;;;4956911;28;21691;-79
2023/03/31 00:28:54;;;;;;;15.13;3.80;;;9.80;99.90;;;;;;4962013;28;20236;-79
2023/03/31 00:31:22;;;;;;;16.30;3.50;;;9.80;99.90;;;;;;4956303;28;20235;-79
2023/03/31 00:33:49;;;;;;;11.10;3.67;;;9.80;99.90;;;;;;4964437;28;20833;-80
2023/03/31 00:36:19;;;;;;;15.00;4.07;;;9.80;99.90;;;;;;4963375;28;20227;-80
2023/03/31 00:38:47;;;;;;;19.03;3.90;;;9.90;99.90;;;;;;4963463;28;20257;-79
2023/03/31 00:41:14;;;;;;;13.83;3.97;;;9.80;99.90;;;;;;4960508;28;20227;-80
2023/03/31 00:43:42;;;;;;;14.87;3.77;;;9.80;99.90;;;;;;4960769;28;20262;-79
2023/03/31 00:46:16;;;;;;;13.73;3.97;;;9.80;99.90;;;;;;4958462;28;20219;-80
2023/03/31 00:48:47;;;;;;;14.43;3.90;;;9.70;99.90;;;;;;4962299;28;20820;-79
2023/03/31 00:51:14;;;;;;;14.47;3.83;;;9.70;99.90;;;;;;4959675;28;20236;-80
2023/03/31 00:53:41;;;;;;;13.27;3.83;;;9.70;99.90;;;;;;4962321;28;20340;-80
2023/03/31 00:56:13;;;;;;;16.40;3.93;;;9.70;99.90;;;;;;4960362;28;20748;-80
2023/03/31 00:58:43;;;;;;;17.27;3.63;;;9.70;99.90;;;;;;4963970;28;20786;-80
2023/03/31 01:01:14;;;;;;;15.13;3.60;;;9.70;99.90;;;;;;4960172;28;20229;-80
2023/03/31 01:03:45;;;;;;;15.03;3.93;;;9.60;99.90;;;;;;4961311;28;20323;-80
2023/03/31 01:06:18;;;;;;;15.33;3.87;;;9.60;99.90;;;;;;4959368;28;20219;-79
2023/03/31 01:08:46;;;;;;;15.47;3.77;;;9.60;99.90;;;;;;4957975;28;20241;-80
2023/03/31 01:11:16;;;;;;;15.40;3.77;;;9.60;99.90;;;;;;4956743;28;20218;-80
2023/03/31 01:13:44;;;;;;;19.83;4.47;;;9.60;99.90;;;;;;4960310;28;20813;-79
2023/03/31 01:16:12;;;;;;;18.40;3.80;;;9.60;99.90;;;;;;4955243;28;20222;-78
2023/03/31 01:18:39;;;;;;;13.60;3.63;;;9.60;99.90;;;;;;4958504;28;20637;-78
2023/03/31 01:21:39;;;;;;;15.27;4.30;;;9.60;99.90;;;;;;4958945;28;20765;-79
2023/03/31 01:24:46;;;;;;;14.20;3.80;;;9.50;99.90;;;;;;4959153;28;20218;-81
2023/03/31 01:27:34;;;;;;;11.90;3.17;;;9.50;99.90;;;;;;4961732;28;20220;-80
2023/03/31 01:30:25;;;;;;;13.70;4.13;;;9.50;99.90;;;;;;4960223;28;20314;-80
2023/03/31 01:33:21;;;;;;;18.70;4.30;;;9.50;99.90;;;;;;4959959;28;20227;-80
2023/03/31 01:36:14;;;;;;;15.87;3.60;;;9.50;99.90;;;;;;4957024;28;20319;-80
2023/03/31 01:39:31;;;;;;;12.77;3.40;;;9.50;99.90;;;;;;4955992;28;20251;-80
2023/03/31 01:42:05;;;;;;;19.23;3.67;;;9.40;99.90;;;;;;4957335;28;20302;-80
2023/03/31 01:44:41;;;;;;;17.10;4.10;;;9.50;99.90;;;;;;4975808;28;20229;-80
2023/03/31 01:47:17;;;;;;;14.23;3.50;;;9.50;99.90;;;;;;4960028;28;20662;-80
2023/03/31 01:49:49;;;;;;;16.37;3.60;;;9.50;99.90;;;;;;4959295;28;20225;-80
2023/03/31 01:52:22;;;;;;;16.70;3.97;;;9.50;99.90;;;;;;4960401;28;20223;-80
2023/03/31 01:54:53;;;;;;;11.80;3.63;;;9.50;99.90;;;;;;4957212;28;20234;-80
2023/03/31 01:57:27;;;;;;;12.60;3.50;;;9.60;99.90;;;;;;4959518;28;20804;-80
2023/03/31 02:00:03;;;;;;;13.90;3.53;;;9.60;99.90;;;;;;4975589;28;20223;-81
2023/03/31 02:02:45;;;;;;;14.57;3.90;;;9.60;99.90;;;;;;4960976;28;20313;-80
2023/03/31 02:05:16;;;;;;;15.93;3.80;;;9.60;99.90;;;;;;4958370;28;20233;-80
2023/03/31 02:07:49;;;;;;;11.30;3.50;;;9.60;99.90;;;;;;4961429;28;20227;-81
2023/03/31 02:10:18;;;;;;;15.77;3.83;;;9.50;99.90;;;;;;4976790;28;20258;-81
2023/03/31 02:12:47;;;;;;;15.27;3.73;;;9.50;99.90;;;;;;4954777;28;20238;-80
2023/03/31 02:15:18;;;;;;;12.57;3.93;;;9.50;99.90;;;;;;4959088;28;20223;-82
2023/03/31 02:17:49;;;;;;;16.13;5.00;;;9.50;99.90;;;;;;4961194;28;20735;-79
2023/03/31 02:20:19;;;;;;;16.33;4.07;;;9.50;99.90;;;;;;4963701;28;20222;-79
2023/03/31 02:22:49;;;;;;;14.17;4.37;;;9.50;99.90;;;;;;4963774;28;20226;-80
2023/03/31 02:25:21;;;;;;;11.00;3.83;;;9.60;99.90;;;;;;4963987;28;20223;-79
2023/03/31 02:27:55;;;;;;;16.70;3.93;;;9.50;99.90;;;;;;4964047;28;20930;-79
2023/03/31 02:30:23;;;;;;;15.87;4.37;;;9.60;99.90;;;;;;4962968;28;20223;-79
2023/03/31 02:32:50;;;;;;;17.03;4.60;;;9.60;99.90;;;;;;4958992;28;20301;-79
2023/03/31 02:35:20;;;;;;;14.43;4.60;;;9.60;99.90;;;;;;4962701;28;20322;-79
2023/03/31 02:37:48;;;;;;;13.60;3.97;;;9.60;99.90;;;;;;4961934;28;20301;-79
2023/03/31 02:40:18;;;;;;;8.97;3.93;;;9.60;99.90;;;;;;4963874;28;20286;-80
2023/03/31 02:42:45;;;;;;;13.50;5.03;;;9.60;99.90;;;;;;4964000;28;20602;-80
2023/03/31 02:45:44;;;;;;;15.30;5.17;;;9.60;99.90;;;;;;4966000;28;20770;-80
2023/03/31 02:48:17;;;;;;;14.83;4.97;;;9.60;99.90;;;;;;4962641;28;20311;-79
2023/03/31 02:51:12;;;;;;;14.33;4.90;;;9.60;99.90;;;;;;4961389;28;20285;-79
2023/03/31 02:53:56;;;;;;;12.27;4.70;;;9.60;99.90;;;;;;4976807;28;20725;-80
2023/03/31 02:56:43;;;;;;;17.10;5.27;;;9.60;99.90;;;;;;4961867;28;20223;-80
2023/03/31 02:59:28;;;;;;;18.43;5.10;;;9.60;99.90;;;;;;4960875;28;20239;-80
2023/03/31 03:02:17;;;;;;;16.37;5.13;;;9.60;99.90;;;;;;4978919;28;20244;-80
2023/03/31 03:05:05;;;;;;;13.50;4.73;;;9.60;99.90;;;;;;4961049;28;20347;-80
2023/03/31 03:07:37;;;;;;;10.63;4.40;;;9.60;99.90;;;;;;4984412;28;20293;-79
2023/03/31 03:10:08;;;;;;;11.33;4.23;;;9.60;99.90;;;;;;4984586;28;20658;-80
2023/03/31 03:12:44;;;;;;;12.47;4.90;;;9.60;99.90;;;;;;4979500;28;20226;-80
2023/03/31 03:15:13;;;;;;;10.90;4.60;;;9.60;99.90;;;;;;4974930;28;20229;-80
2023/03/31 03:17:43;;;;;;;11.83;4.90;;;9.60;99.90;;;;;;4984742;28;20235;-80
2023/03/31 03:20:12;;;;;;;17.70;5.10;;;9.60;99.90;;;;;;4980326;28;20312;-80
2023/03/31 03:22:40;;;;;;;12.73;4.80;;;9.50;99.90;;;;;;4977468;28;20313;-79
2023/03/31 03:25:09;;;;;;;16.23;5.43;;;9.50;99.90;;;;;;4984559;28;20268;-78
2023/03/31 03:27:36;;;;;;;11.17;5.17;;;9.50;99.90;;;;;;4983102;28;20712;-78
2023/03/31 03:30:03;;;;;;;9.33;4.73;;;9.50;99.90;;;;;;4984632;28;20470;-79
2023/03/31 03:32:30;;;;;;;14.90;4.77;;;9.50;99.90;;;;;;4980806;28;20814;-80
2023/03/31 03:34:58;;;;;;;16.23;5.10;;;9.50;99.90;;;;;;4982428;28;20249;-79
2023/03/31 03:37:25;;;;;;;13.67;5.17;;;9.40;99.90;;;;;;4978984;28;20234;-79
2023/03/31 03:39:52;;;;;;;11.87;4.60;;;9.40;99.90;;;;;;4983633;28;20226;-79
2023/03/31 03:42:19;;;;;;;12.70;5.20;;;9.40;99.90;;;;;;4982586;28;20232;-79
2023/03/31 03:44:46;;;;;;;13.30;5.37;;;9.40;99.90;;;;;;4985286;28;20253;-79
2023/03/31 03:47:13;;;;;;;11.03;5.00;;;9.30;99.90;;;;;;4982050;28;20320;-80
2023/03/31 03:49:40;;;;;;;11.83;5.00;;;9.30;99.90;;;;;;4983754;28;20912;-79
2023/03/31 03:52:08;;;;;;;11.80;5.50;;;9.20;99.90;;;;;;5027906;23;20220;-96
2023/03/31 03:54:35;;;;;;;12.30;5.10;;;9.20;99.90;;;;;;5040260;28;20251;-96
2023/03/31 03:57:02;;;;;;;14.37;5.60;;;9.20;99.90;;;;;;5053994;28;20227;-96
2023/03/31 03:59:29;;;;;;;13.17;5.37;;;9.20;99.90;;;;;;5029561;28;20233;-95
2023/03/31 04:01:56;;;;;;;12.23;5.63;;;9.10;99.90;;;;;;5022505;28;20238;-96
2023/03/31 04:04:23;;;;;;;14.30;5.83;;;9.10;99.90;;;;;;5021764;28;20225;-96
2023/03/31 04:06:50;;;;;;;13.13;6.07;;;9.00;99.90;;;;;;5023713;28;20296;-96
2023/03/31 04:09:20;;;;;;;11.83;5.80;;;9.00;99.90;;;;;;5024453;28;20228;-96
2023/03/31 04:11:47;;;;;;;12.87;5.40;;;9.10;99.90;;;;;;5035975;28;20201;-93
2023/03/31 04:14:14;;;;;;;8.93;5.03;;;9.10;99.90;;;;;;5018820;28;20217;-94
2023/03/31 04:16:41;;;;;;;11.67;5.27;;;9.00;99.90;;;;;;5012761;28;20260;-92
2023/03/31 04:19:10;;;;;;;15.37;5.60;;;9.00;99.90;;;;;;5012680;28;20308;-95
2023/03/31 04:21:44;;;;;;;13.63;5.57;;;9.00;99.90;;;;;;5009456;28;20225;-93
2023/03/31 04:24:14;;;;;;;10.63;5.93;;;9.00;99.90;;;;;;5009846;28;20217;-93
2023/03/31 04:26:43;;;;;;;18.47;5.60;;;9.00;99.90;;;;;;5024982;28;20217;-93
2023/03/31 04:29:11;;;;;;;14.67;5.87;;;9.00;99.90;;;;;;5021946;28;20232;-91
2023/03/31 04:31:41;;;;;;;15.50;6.43;;;9.10;99.90;;;;;;5012447;22;20333;-82
2023/03/31 04:34:12;;;;;;;23.73;6.67;;;9.00;99.90;;;;;;4973734;28;20791;-82
2023/03/31 04:36:41;;;;;;;26.47;7.83;;;9.00;99.90;;;;;;4978808;28;20223;-84
2023/03/31 04:39:10;;;;;;;18.10;6.93;;;9.00;99.90;;;;;;4960820;28;20234;-82
2023/03/31 04:41:38;;;;;;;13.47;6.80;;;9.00;99.90;;;;;;4977695;28;20231;-82
2023/03/31 04:44:06;;;;;;;13.57;6.47;;;9.00;99.90;;;;;;4959740;28;20243;-82
2023/03/31 04:46:34;;;;;;;12.23;6.30;;;9.10;99.90;;;;;;4973455;28;20265;-83
2023/03/31 04:49:01;;;;;;;16.03;7.67;;;9.10;99.90;;;;;;4983426;28;20785;-82
2023/03/31 04:51:29;;;;;;;15.00;7.20;;;9.10;99.90;;;;;;4976857;28;20226;-82
2023/03/31 04:53:56;;;;;;;13.73;6.77;;;9.10;99.90;;;;;;4978395;28;20240;-82
2023/03/31 04:56:22;;;;;;;15.37;7.40;;;9.10;99.90;;;;;;4967689;28;20277;-82
2023/03/31 04:58:49;;;;;;;15.30;7.17;;;9.10;99.90;;;;;;4995973;28;20218;-82
2023/03/31 05:01:18;;;;;;;15.57;7.27;;;9.10;99.90;;;;;;4986307;28;20602;-83
2023/03/31 05:03:46;;;;;;;14.80;7.63;;;9.10;99.90;;;;;;4984118;28;20244;-82
2023/03/31 05:06:13;;;;;;;16.83;7.10;;;9.10;99.90;;;;;;4963807;28;20306;-82
2023/03/31 05:08:40;;;;;;;13.00;7.53;;;9.10;99.90;;;;;;4963175;28;20234;-83
2023/03/31 05:11:07;;;;;;;17.67;8.67;;;9.10;99.90;;;;;;4964959;28;20273;-82
2023/03/31 05:13:33;;;;;;;13.33;8.27;;;9.10;99.90;;;;;;4958329;28;20330;-82
2023/03/31 05:16:06;;;;;;;13.43;7.70;;;9.10;99.90;;;;;;4958794;28;20227;-81
2023/03/31 05:18:34;;;;;;;13.97;8.17;;;9.10;99.90;;;;;;4976752;28;20292;-82
2023/03/31 05:21:12;;;;;;;13.37;7.10;;;9.10;99.90;;;;;;4958789;28;20373;-82
2023/03/31 05:23:39;;;;;;;14.30;7.67;;;9.10;99.90;;;;;;4949858;28;20573;-81
2023/03/31 05:26:06;;;;;;;11.23;6.80;;;9.10;99.90;;;;;;4943914;28;20345;-81
2023/03/31 05:28:33;;;;;;;12.73;7.30;;;9.20;99.90;;;;;;4962379;28;20721;-81
2023/03/31 05:31:00;;;;;;;17.40;7.40;;;9.20;99.90;;;;;;4963271;28;20214;-81
2023/03/31 05:33:28;;;;;;;12.73;8.00;;;9.20;99.90;;;;;;4978824;28;20325;-81
2023/03/31 05:35:56;;;;;;;18.43;8.60;;;9.20;99.90;;;;;;4978710;28;20250;-81
2023/03/31 05:38:23;;;;;;;12.83;7.30;;;9.20;99.90;;;;;;4975874;28;20225;-81
2023/03/31 05:40:50;;;;;;;19.97;8.47;;;9.20;99.90;;;;;;4960161;28;20588;-81
2023/03/31 05:43:17;;;;;;;16.40;8.03;;;9.20;99.90;;;;;;4958283;28;20223;-81
2023/03/31 05:45:43;;;;;;;16.20;8.37;;;9.30;99.90;;;;;;4945585;28;20322;-80
2023/03/31 05:48:10;;;;;;;14.10;8.77;;;9.30;99.90;;;;;;4954738;28;20223;-81
2023/03/31 05:50:37;;;;;;;17.47;8.50;;;9.30;99.90;;;;;;4977174;28;20325;-82
2023/03/31 05:53:05;;;;;;;16.13;8.03;;;9.30;99.90;;;;;;4982481;28;20237;-81
2023/03/31 05:55:32;;;;;;;16.50;8.77;;;9.30;99.90;;;;;;4983348;28;20693;-82
2023/03/31 05:57:59;;;;;;;14.87;8.30;;;9.30;99.90;;;;;;4966708;28;20249;-81
2023/03/31 06:00:26;;;;;;;15.60;7.40;;;9.30;99.90;;;;;;4985589;28;20232;-81
2023/03/31 06:02:53;;;;;;;12.10;7.30;;;9.40;99.90;;;;;;4969989;28;20245;-81
2023/03/31 06:05:19;;;;;;;14.83;8.03;;;9.40;99.90;;;;;;4967561;28;20772;-82
2023/03/31 06:07:46;;;;;;;17.80;7.40;;;9.40;99.90;;;;;;4967139;28;20295;-81
2023/03/31 06:10:14;;;;;;;16.00;7.90;;;9.40;99.90;;;;;;4984428;28;20225;-81
2023/03/31 06:12:41;;;;;;;22.03;8.57;;;9.50;99.90;;;;;;4970169;28;20723;-81
2023/03/31 06:15:09;;;;;;;18.97;8.50;;;9.50;99.90;;;;;;4982966;28;20709;-81
2023/03/31 06:17:35;;;;;;;13.70;7.90;;;9.60;99.90;;;;;;4968966;28;20234;-81
2023/03/31 06:20:04;;;;;;;12.63;6.63;;;9.60;99.90;;;;;;4967177;28;20222;-81
2023/03/31 06:22:31;;;;;;;12.70;7.10;;;9.60;99.90;;;;;;4977703;28;20243;-81
2023/03/31 06:24:58;;;;;;;16.47;7.53;;;9.70;99.90;;;;;;4983987;28;20226;-81
2023/03/31 06:27:26;;;;;;;11.73;7.23;;;9.70;99.90;;;;;;4965062;28;20219;-81
2023/03/31 06:29:53;;;;;;;11.03;6.87;;;9.80;99.90;;;;;;4982536;28;20854;-81
2023/03/31 06:32:20;;;;;;;15.13;6.80;;;9.90;99.90;;;;;;4980011;28;20311;-82
2023/03/31 06:34:47;;;;;;;12.47;6.70;;;9.90;99.90;;;;;;4979125;28;20302;-81
2023/03/31 06:37:13;;;;;;;14.47;7.40;;;10.00;99.90;;;;;;4982956;28;20227;-81
2023/03/31 06:39:40;;;;;;;11.53;6.50;;;10.10;99.90;;;;;;4967483;28;20233;-81
2023/03/31 06:42:07;;;;;;;13.17;6.47;;;10.20;99.90;;;;;;4964421;28;20230;-81
2023/03/31 06:44:41;;;;;;;16.37;6.57;;;10.20;99.90;;;;;;4964542;28;20992;-81
2023/03/31 06:47:08;;;;;;;18.00;7.57;;;10.20;99.90;;;;;;4963186;28;20289;-81
2023/03/31 06:49:34;;;;;;;17.63;6.50;;;10.30;99.90;;;;;;4966410;28;20697;-81
2023/03/31 06:52:02;;;;;;;15.43;6.33;;;10.40;99.90;;;;;;4965661;28;20723;-81
2023/03/31 06:54:29;;;;;;;11.03;6.20;;;10.40;99.90;;;;;;4963137;28;20228;-81
2023/03/31 06:56:56;;;;;;;13.60;5.73;;;10.40;99.90;;;;;;4981974;28;20222;-81
2023/03/31 06:59:23;;;;;;;17.10;6.03;;;10.40;99.90;;;;;;4978874;28;20683;-81
2023/03/31 07:01:51;;;;;;;10.90;5.70;;;10.50;99.90;;;;;;4966858;28;20734;-81
2023/03/31 07:04:17;;;;;;;14.80;6.33;;;10.50;99.90;;;;;;4968109;28;20318;-81
2023/03/31 07:06:44;;;;;;;19.20;6.60;;;10.50;99.90;;;;;;4983711;28;20224;-81
2023/03/31 07:09:11;;;;;;;15.17;5.80;;;10.40;99.90;;;;;;4965563;28;20817;-81
2023/03/31 07:11:38;;;;;;;12.43;6.23;;;10.50;99.90;;;;;;4967177;28;20730;-81
2023/03/31 07:14:04;;;;;;;13.33;5.97;;;10.50;99.90;;;;;;4967059;28;20227;-82
2023/03/31 07:16:31;;;;;;;10.67;6.00;;;10.50;99.90;;;;;;4976878;28;20250;-81
2023/03/31 07:19:03;;;;;;;11.63;6.63;;;10.50;99.90;;;;;;4968134;28;20253;-81
2023/03/31 07:21:29;;;;;;;12.53;6.43;;;10.60;99.90;;;;;;4982949;28;20254;-81
2023/03/31 07:23:57;;;;;;;13.73;5.97;;;10.60;99.90;;;;;;4971707;28;20657;-82
2023/03/31 07:26:23;;;;;;;13.20;5.93;;;10.70;99.90;;;;;;4967637;28;20303;-81
2023/03/31 07:28:50;;;;;;;12.97;5.67;;;10.70;99.90;;;;;;4968867;28;20233;-81
2023/03/31 07:31:17;;;;;;;16.00;6.07;;;10.80;99.90;;;;;;4966820;28;20321;-81
2023/03/31 07:33:44;;;;;;;15.17;5.87;;;10.90;99.90;;;;;;4969278;28;20231;-80
2023/03/31 07:36:13;;;;;;;12.60;6.20;;;11.00;99.90;;;;;;4982717;28;20225;-81
2023/03/31 07:38:40;;;;;;;14.33;5.37;;;11.00;99.90;;;;;;4967947;28;20945;-81
2023/03/31 07:41:10;;;;;;;13.53;5.93;;;11.10;99.90;;;;;;4966607;28;20315;-81
2023/03/31 07:43:37;;;;;;;15.20;6.03;;;11.20;99.90;;;;;;4967645;28;20216;-81
2023/03/31 07:46:06;;;;;;;11.63;5.17;;;11.20;99.90;;;;;;4965191;28;20257;-81
2023/03/31 07:48:33;;;;;;;10.67;5.23;;;11.30;99.90;;;;;;4963336;28;20239;-81
2023/03/31 07:51:00;;;;;;;8.73;5.07;;;11.40;99.90;;;;;;4981383;28;20215;-81
2023/03/31 07:53:33;;;;;;;10.63;4.87;;;11.40;99.90;;;;;;4962267;28;20235;-81
2023/03/31 07:56:00;;;;;;;13.57;4.93;;;11.40;99.90;;;;;;4965514;28;20571;-81
2023/03/31 07:58:27;;;;;;;13.37;4.97;;;11.50;99.90;;;;;;4964185;28;20230;-80
2023/03/31 08:00:53;;;;;;;9.20;4.40;;;11.40;99.90;;;;;;4967485;28;20224;-80
2023/03/31 08:03:21;;;;;;;11.17;4.70;;;11.40;99.90;;;;;;4968308;28;20306;-81
2023/03/31 08:05:47;;;;;;;12.33;4.90;;;11.40;99.90;;;;;;4977143;28;20230;-80
2023/03/31 08:08:14;;;;;;;8.53;4.73;;;11.40;99.90;;;;;;4966492;28;20226;-81
2023/03/31 08:10:42;;;;;;;14.70;4.70;;;11.30;99.90;;;;;;4964871;28;20258;-81
2023/03/31 08:13:09;;;;;;;11.13;4.80;;;11.20;99.90;;;;;;4964572;28;20223;-81
2023/03/31 08:15:36;;;;;;;10.57;4.90;;;11.10;99.90;;;;;;4967971;28;20318;-81
2023/03/31 08:18:03;;;;;;;8.50;4.40;;;11.00;99.90;;;;;;4968817;28;20241;-81
2023/03/31 08:20:30;;;;;;;10.63;4.70;;;10.90;99.90;;;;;;4958539;28;20713;-80
2023/03/31 08:22:56;;;;;;;11.80;5.00;;;10.80;99.90;;;;;;4964081;28;20226;-80
2023/03/31 08:25:23;;;;;;;10.60;4.53;;;10.60;99.90;;;;;;4979820;28;20739;-81
2023/03/31 08:27:51;;;;;;;10.07;4.67;;;10.50;99.90;;;;;;4965838;28;20231;-80
2023/03/31 08:30:19;;;;;;;9.03;4.87;;;10.40;99.90;;;;;;4980777;28;20215;-80
2023/03/31 08:32:46;;;;;;;8.43;4.17;;;10.30;99.90;;;;;;4958655;28;20261;-80
2023/03/31 08:35:13;;;;;;;8.97;4.50;;;10.40;99.90;;;;;;4962514;28;20238;-80
2023/03/31 08:37:40;;;;;;;9.57;4.53;;;10.30;99.90;;;;;;4974496;28;20277;-80
2023/03/31 08:40:13;;;;;;;8.77;3.97;;;10.40;99.90;;;;;;4968468;28;20232;-80
2023/03/31 08:42:43;;;;;;;8.80;3.97;;;10.40;99.90;;;;;;4982698;28;20240;-80
2023/03/31 08:45:20;;;;;;;11.50;4.03;;;10.40;99.90;;;;;;4984096;28;20230;-80
2023/03/31 08:47:50;;;;;;;8.13;3.50;;;10.40;99.90;;;;;;4965198;28;20283;-79
2023/03/31 08:50:21;;;;;;;7.03;3.50;;;10.40;99.90;;;;;;4974598;28;20825;-79
2023/03/31 08:52:52;;;;;;;6.73;3.20;;;10.40;99.90;;;;;;4960719;28;20223;-79
2023/03/31 08:55:25;;;;;;;6.07;3.47;;;10.40;99.90;;;;;;4965291;28;20219;-80
2023/03/31 08:57:59;;;;;;;5.80;3.40;;;10.40;99.90;;;;;;4977670;28;20223;-80
2023/03/31 09:00:35;;;;;;;13.03;5.67;;;10.40;99.90;;;;;;4959151;28;20318;-80
2023/03/31 09:03:13;;;;;;;7.03;4.03;;;10.40;99.90;;;;;;4982163;28;20234;-80
2023/03/31 09:05:51;;;;;;;10.20;3.93;;;10.50;99.90;;;;;;4979127;28;20325;-80
2023/03/31 09:08:32;;;;;;;6.83;2.90;;;10.50;99.90;;;;;;4964852;28;20317;-80
2023/03/31 09:11:18;;;;;;;6.57;3.50;;;10.40;99.90;;;;;;4960018;28;20215;-79
2023/03/31 09:14:04;;;;;;;8.43;2.93;;;10.40;99.90;;;;;;4978490;28;20248;-79
2023/03/31 09:16:47;;;;;;;5.67;2.70;;;10.40;99.90;;;;;;4965563;28;20723;-80
2023/03/31 09:19:18;;;;;;;7.30;2.63;;;10.30;99.90;;;;;;4971436;28;20305;-79
2023/03/31 09:21:48;;;;;;;3.67;2.13;;;10.30;99.90;;;;;;4964124;28;20329;-80
2023/03/31 09:24:19;;;;;;;4.70;2.30;;;10.30;99.90;;;;;;4966378;28;20230;-79
2023/03/31 09:26:49;;;;;;;4.97;2.30;;;10.30;99.90;;;;;;4963120;28;20721;-79
2023/03/31 09:29:23;;;;;;;5.13;2.60;;;10.20;99.90;;;;;;4980118;28;20218;-79
2023/03/31 09:31:51;;;;;;;5.97;2.67;;;10.30;99.90;;;;;;4959805;28;21651;-79
2023/03/31 09:34:24;;;;;;;7.17;2.67;;;10.30;99.90;;;;;;4978324;28;20234;-79
2023/03/31 09:36:51;;;;;;;4.83;2.63;;;10.30;99.90;;;;;;4955728;28;20315;-79
2023/03/31 09:39:18;;;;;;;8.80;2.90;;;10.30;99.90;;;;;;4973238;28;20276;-80
2023/03/31 09:41:48;;;;;;;10.43;3.23;;;10.40;99.90;;;;;;4970129;28;20233;-79
2023/03/31 09:44:24;;;;;;;9.00;3.10;;;10.40;99.90;;;;;;4952662;28;20261;-79
2023/03/31 09:46:53;;;;;;;5.67;2.77;;;10.50;99.90;;;;;;4955474;28;20274;-79
2023/03/31 09:49:22;;;;;;;6.80;3.23;;;10.60;99.90;;;;;;4967832;28;20223;-79
2023/03/31 09:51:57;;;;;;;7.93;2.97;;;10.60;99.90;;;;;;4958407;28;20224;-79
2023/03/31 09:54:29;;;;;;;7.80;2.93;;;10.70;99.90;;;;;;4959332;28;20234;-79
2023/03/31 09:56:56;;;;;;;5.33;3.03;;;10.70;99.90;;;;;;4960515;28;20318;-79
2023/03/31 09:59:29;;;;;;;6.23;2.67;;;10.70;99.90;;;;;;4961171;28;20301;-82
2023/03/31 10:02:01;;;;;;;6.73;2.80;;;10.70;99.90;;;;;;4990782;23;20655;-79
2023/03/31 10:04:30;;;;;;;5.87;3.00;;;10.70;99.90;;;;;;5018159;28;20229;-79
2023/03/31 10:06:57;;;;;;;10.00;3.43;;;10.70;99.90;;;;;;5003986;28;20224;-79
2023/03/31 10:09:26;;;;;;;7.63;2.77;;;10.80;99.90;;;;;;4997653;28;20619;-79
2023/03/31 10:11:56;;;;;;;6.57;3.20;;;10.80;99.90;;;;;;4999839;28;20257;-79
2023/03/31 10:14:32;;;;;;;9.57;3.03;;;10.80;99.90;;;;;;5000211;28;20267;-78
2023/03/31 10:17:05;;;;;;;6.93;2.77;;;10.80;99.90;;;;;;4997906;28;20736;-78
2023/03/31 10:19:35;;;;;;;6.43;3.43;;;10.90;99.90;;;;;;5000138;28;20727;-80
2023/03/31 10:22:04;;;;;;;6.97;3.03;;;10.90;99.90;;;;;;5001196;28;20230;-80
2023/03/31 10:24:38;;;;;;;6.97;3.00;;;10.90;99.90;;;;;;5015037;28;20221;-81
2023/03/31 10:27:06;;;;;;;6.77;2.73;;;10.90;99.90;;;;;;4993106;28;20647;-80
2023/03/31 10:29:34;;;;;;;6.07;3.20;;;10.90;99.90;;;;;;5002321;28;20235;-80
2023/03/31 10:32:14;;;;;;;6.17;2.90;;;10.90;99.90;;;;;;5001495;28;20226;-80
2023/03/31 10:34:42;;;;;;;7.83;3.57;;;11.00;99.90;;;;;;5014787;28;20229;-81
2023/03/31 10:37:14;;;;;;;4.13;2.50;;;11.00;99.90;;;;;;4987998;28;20238;-80
2023/03/31 10:39:43;;;;;;;6.90;3.50;;;10.90;99.90;;;;;;5004382;28;20241;-80
2023/03/31 10:42:10;;;;;;;4.53;2.70;;;10.90;99.90;;;;;;5002692;28;20237;-81
2023/03/31 10:44:38;;;;;;;6.97;3.10;;;10.90;99.90;;;;;;5003900;28;20226;-80
2023/03/31 10:47:18;;;;;;;6.83;2.97;;;10.90;99.90;;;;;;5004874;28;20237;-80
2023/03/31 10:49:47;;;;;;;6.30;3.10;;;11.00;99.90;;;;;;5013012;28;20227;-80
2023/03/31 10:52:17;;;;;;;7.03;3.17;;;11.10;99.90;;;;;;5002257;28;20235;-80
2023/03/31 10:54:49;;;;;;;6.70;3.43;;;11.10;99.90;;;;;;5002841;28;20619;-80
2023/03/31 10:57:18;;;;;;;6.33;3.07;;;11.20;99.90;;;;;;5003425;28;20769;-80
2023/03/31 11:00:11;;;;;;;4.33;2.13;;;11.30;99.90;;;;;;5007369;28;20692;-80
2023/03/31 11:03:14;;;;;;;6.37;2.60;;;11.30;99.90;;;;;;5005995;28;20218;-80
2023/03/31 11:05:46;;;;;;;9.57;3.20;;;11.40;99.90;;;;;;4994225;28;20717;-81
2023/03/31 11:08:28;;;;;;;8.70;4.40;;;11.30;99.90;;;;;;5007438;28;20270;-80
2023/03/31 11:11:11;;;;;;;4.77;2.87;;;11.30;99.90;;;;;;5001897;28;20230;-81
2023/03/31 11:13:43;;;;;;;4.60;2.57;;;11.30;99.90;;;;;;5003934;28;20332;-81
2023/03/31 11:16:21;;;;;;;6.20;2.57;;;11.20;99.90;;;;;;5006726;28;20245;-80
2023/03/31 11:19:02;;;;;;;5.57;2.40;;;11.20;99.90;;;;;;5019137;28;20225;-81
2023/03/31 11:21:40;;;;;;;5.10;2.60;;;11.10;99.90;;;;;;5005932;28;20646;-81
2023/03/31 11:24:17;;;;;;;4.00;2.50;;;11.10;99.90;;;;;;5003179;28;20777;-81
2023/03/31 11:26:54;;;;;;;5.60;2.37;;;11.00;99.90;;;;;;5020958;28;20244;-81
2023/03/31 11:29:34;;;;;;;5.07;2.40;;;11.00;99.90;;;;;;5006828;28;20276;-80
2023/03/31 11:32:30;;;;;;;3.97;2.23;;;11.00;99.90;;;;;;5005153;28;20317;-80
2023/03/31 11:35:13;;;;;;;4.60;2.40;;;10.90;99.90;;;;;;5003397;28;20714;-80
2023/03/31 11:38:11;;;;;;;5.83;2.50;;;10.90;99.90;;;;;;4999511;28;20308;-80
2023/03/31 11:40:48;;;;;;;5.60;2.80;;;10.90;99.90;;;;;;4997869;28;20234;-80
2023/03/31 11:43:24;;;;;;;4.50;2.87;;;10.90;99.90;;;;;;5002180;28;20229;-80
2023/03/31 11:45:55;;;;;;;4.47;2.40;;;10.90;99.90;;;;;;5001225;28;20222;-80
2023/03/31 11:48:31;;;;;;;3.07;2.30;;;10.90;99.90;;;;;;5004728;28;20900;-80
2023/03/31 11:51:02;;;;;;;4.80;2.60;;;10.90;99.90;;;;;;5006368;28;20218;-80
2023/03/31 11:53:31;;;;;;;5.00;2.53;;;10.90;99.90;;;;;;5001179;28;20234;-80
2023/03/31 11:56:01;;;;;;;4.73;2.47;;;11.00;99.90;;;;;;4999968;28;20227;-80
2023/03/31 11:58:35;;;;;;;5.50;2.47;;;11.00;99.90;;;;;;5005525;28;20236;-80
2023/03/31 12:01:08;;;;;;;4.87;2.30;;;11.00;99.90;;;;;;4996379;28;20283;-80
2023/03/31 12:03:43;;;;;;;6.40;2.70;;;11.00;99.90;;;;;;5005712;28;20311;-83
2023/03/31 12:06:17;;;;;;;6.00;2.40;;;10.90;99.90;;;;;;5004826;28;20272;-81
2023/03/31 12:08:50;;;;;;;5.83;2.53;;;10.90;99.90;;;;;;5002883;28;20721;-81
2023/03/31 12:11:26;;;;;;;8.83;3.10;;;10.80;99.90;;;;;;5004376;28;21164;-81
2023/03/31 12:13:58;;;;;;;11.40;3.13;;;10.80;99.90;;;;;;4999130;28;20234;-82
2023/03/31 12:16:31;;;;;;;4.80;2.67;;;10.70;99.90;;;;;;5017828;28;20244;-81
2023/03/31 12:19:05;;;;;;;6.43;2.70;;;10.70;99.90;;;;;;4992194;28;20224;-81
2023/03/31 12:21:36;;;;;;;5.33;2.93;;;10.70;99.90;;;;;;5000794;28;20229;-81
2023/03/31 12:24:02;;;;;;;5.63;3.50;;;10.70;99.90;;;;;;5004256;28;20236;-81
2023/03/31 12:26:38;;;;;;;4.57;2.50;;;10.60;99.90;;;;;;5006935;28;20294;-81
2023/03/31 12:29:11;;;;;;;6.77;3.67;;;10.60;99.90;;;;;;5003536;28;20303;-81
2023/03/31 12:31:40;;;;;;;5.67;2.20;;;10.60;99.90;;;;;;5004739;28;20855;-81
2023/03/31 12:34:12;;;;;;;4.57;2.60;;;10.50;99.90;;;;;;5003306;28;20664;-81
2023/03/31 12:36:54;;;;;;;5.83;2.70;;;10.50;99.90;;;;;;5005046;28;20228;-81
2023/03/31 12:39:35;;;;;;;9.17;3.50;;;10.50;99.90;;;;;;5005557;28;20374;-80
2023/03/31 12:42:23;;;;;;;4.83;2.70;;;10.40;99.90;;;;;;4998700;28;20679;-80
2023/03/31 12:45:01;;;;;;;4.70;2.70;;;10.30;99.90;;;;;;5003371;28;20232;-80
2023/03/31 12:47:40;;;;;;;5.60;2.70;;;10.30;99.90;;;;;;5001548;28;20224;-80
2023/03/31 12:50:28;;;;;;;5.43;2.73;;;10.30;99.90;;;;;;4998824;28;20711;-80
2023/03/31 12:53:05;;;;;;;3.60;2.10;;;10.20;99.90;;;;;;5003270;28;20228;-80
2023/03/31 12:55:37;;;;;;;3.67;2.43;;;10.20;99.90;;;;;;5000314;28;20219;-80
2023/03/31 12:58:37;;;;;;;5.20;2.10;;;10.20;99.90;;;;;;5003160;28;20228;-80
2023/03/31 13:01:06;;;;;;;5.00;2.23;;;10.20;99.90;;;;;;4999882;28;20221;-80
2023/03/31 13:03:41;;;;;;;3.87;2.50;;;10.20;99.90;;;;;;5002934;28;20359;-80
2023/03/31 13:06:10;;;;;;;4.37;2.43;;;10.20;99.90;;;;;;5001981;28;20308;-80
2023/03/31 13:08:55;;;;;;;5.37;2.47;;;10.20;99.90;;;;;;5000562;28;20320;-80